KAL701 RKSI-RKPC
Flight info
| Callsign | KAL701 |
|---|---|
| Flight time | N/A |
| Altitude | 24000 |
| Route | BOPTA2Y BOPTA Z51 BEDES Y711 DOTOL DOTOL2M |
| Aircraft | B739/M-SDE2E3FGHIRWXY/LB1 |
Departure
| Time | 2026-05-01 10:49 |
|---|---|
| Airport | Incheon International Airport (RKSI) |
Arrival
| Time | N/A |
|---|---|
| Airport | Jeju International Airport (RKPC) |
| Time | Latitude | Longitude | Altitude | Speed | Heading |
|---|---|---|---|---|---|
| 2026-05-01 10:14 | 37.45135 | 126.44576 | 31 ft | 0 kts | 174° |
| 2026-05-01 10:28 | 37.45149 | 126.44575 | 31 ft | 4 kts | 175° |
| 2026-05-01 10:28 | 37.45176 | 126.44572 | 31 ft | 4 kts | 178° |
| 2026-05-01 10:29 | 37.45230 | 126.44576 | 31 ft | 4 kts | 194° |
| 2026-05-01 10:29 | 37.45253 | 126.44589 | 31 ft | 4 kts | 227° |
| 2026-05-01 10:30 | 37.45256 | 126.44593 | 31 ft | 1 kts | 233° |
| 2026-05-01 10:34 | 37.45249 | 126.44582 | 31 ft | 3 kts | 231° |
| 2026-05-01 10:34 | 37.45228 | 126.44544 | 31 ft | 8 kts | 235° |
| 2026-05-01 10:34 | 37.45188 | 126.44476 | 31 ft | 11 kts | 233° |
| 2026-05-01 10:35 | 37.45093 | 126.44308 | 31 ft | 9 kts | 229° |
| 2026-05-01 10:35 | 37.45051 | 126.44234 | 32 ft | 12 kts | 233° |
| 2026-05-01 10:35 | 37.44999 | 126.44143 | 32 ft | 10 kts | 233° |
| 2026-05-01 10:35 | 37.44985 | 126.44120 | 32 ft | 0 kts | 235° |
| 2026-05-01 10:37 | 37.44982 | 126.44114 | 30 ft | 3 kts | 235° |
| 2026-05-01 10:37 | 37.44913 | 126.44078 | 31 ft | 8 kts | 154° |
| 2026-05-01 10:37 | 37.44854 | 126.44131 | 31 ft | 15 kts | 144° |
| 2026-05-01 10:38 | 37.44748 | 126.44226 | 29 ft | 23 kts | 144° |
| 2026-05-01 10:38 | 37.44643 | 126.44322 | 30 ft | 8 kts | 146° |
| 2026-05-01 10:38 | 37.44620 | 126.44341 | 31 ft | 6 kts | 145° |
| 2026-05-01 10:38 | 37.44611 | 126.44349 | 31 ft | 0 kts | 144° |
| 2026-05-01 10:39 | 37.44610 | 126.44350 | 31 ft | 0 kts | 145° |
| 2026-05-01 10:39 | 37.44594 | 126.44364 | 31 ft | 6 kts | 146° |
| 2026-05-01 10:39 | 37.44536 | 126.44413 | 31 ft | 13 kts | 152° |
| 2026-05-01 10:39 | 37.44482 | 126.44407 | 31 ft | 0 kts | 232° |
| 2026-05-01 10:41 | 37.44482 | 126.44405 | 31 ft | 1 kts | 233° |
| 2026-05-01 10:41 | 37.44441 | 126.44333 | 31 ft | 10 kts | 234° |
| 2026-05-01 10:42 | 37.44411 | 126.44280 | 31 ft | 0 kts | 235° |
| 2026-05-01 10:44 | 37.44411 | 126.44279 | 31 ft | 0 kts | 235° |
| 2026-05-01 10:46 | 37.44410 | 126.44278 | 31 ft | 1 kts | 235° |
| 2026-05-01 10:46 | 37.44398 | 126.44259 | 30 ft | 5 kts | 230° |
| 2026-05-01 10:46 | 37.44375 | 126.44196 | 30 ft | 10 kts | 258° |
| 2026-05-01 10:47 | 37.44380 | 126.44137 | 30 ft | 1 kts | 290° |
| 2026-05-01 10:47 | 37.44392 | 126.44120 | 29 ft | 2 kts | 323° |
| 2026-05-01 10:48 | 37.44400 | 126.44113 | 29 ft | 6 kts | 324° |
| 2026-05-01 10:48 | 37.44593 | 126.43940 | 30 ft | 77 kts | 324° |
| 2026-05-01 10:48 | 37.45246 | 126.43334 | 33 ft | 153 kts | 313° |
| 2026-05-01 10:48 | 37.46123 | 126.42322 | 487 ft | 184 kts | 314° |
| 2026-05-01 10:49 | 37.47088 | 126.41174 | 1450 ft | 185 kts | 311° |
| 2026-05-01 10:49 | 37.47945 | 126.40032 | 2700 ft | 181 kts | 315° |
| 2026-05-01 10:49 | 37.48896 | 126.38833 | 3141 ft | 207 kts | 311° |
| 2026-05-01 10:49 | 37.49909 | 126.37399 | 3451 ft | 226 kts | 305° |
| 2026-05-01 10:50 | 37.50429 | 126.35575 | 3999 ft | 232 kts | 276° |
| 2026-05-01 10:50 | 37.50502 | 126.33528 | 4059 ft | 233 kts | 272° |
| 2026-05-01 10:50 | 37.50535 | 126.31429 | 4109 ft | 251 kts | 272° |
| 2026-05-01 10:50 | 37.50575 | 126.29158 | 4107 ft | 265 kts | 272° |
| 2026-05-01 10:51 | 37.50623 | 126.26839 | 4136 ft | 265 kts | 272° |
| 2026-05-01 10:51 | 37.50675 | 126.24527 | 4137 ft | 264 kts | 272° |
| 2026-05-01 10:51 | 37.50729 | 126.22225 | 4207 ft | 263 kts | 272° |
| 2026-05-01 10:51 | 37.50528 | 126.19920 | 4636 ft | 272 kts | 249° |
| 2026-05-01 10:52 | 37.49481 | 126.17962 | 5530 ft | 273 kts | 221° |
| 2026-05-01 10:52 | 37.47861 | 126.16823 | 6401 ft | 274 kts | 194° |
| 2026-05-01 10:52 | 37.45972 | 126.16732 | 7223 ft | 274 kts | 168° |
| 2026-05-01 10:52 | 37.44179 | 126.17550 | 8073 ft | 274 kts | 154° |
| 2026-05-01 10:53 | 37.42460 | 126.18608 | 8930 ft | 277 kts | 153° |
| 2026-05-01 10:53 | 37.40733 | 126.19717 | 9739 ft | 280 kts | 152° |
| 2026-05-01 10:53 | 37.38991 | 126.20842 | 10439 ft | 287 kts | 153° |
| 2026-05-01 10:53 | 37.37141 | 126.22029 | 10672 ft | 310 kts | 153° |
| 2026-05-01 10:54 | 37.35140 | 126.23304 | 10822 ft | 334 kts | 153° |
| 2026-05-01 10:54 | 37.33020 | 126.24646 | 11262 ft | 346 kts | 153° |
| 2026-05-01 10:54 | 37.30875 | 126.25997 | 11914 ft | 351 kts | 154° |
| 2026-05-01 10:54 | 37.28690 | 126.27370 | 12711 ft | 353 kts | 154° |
| 2026-05-01 10:55 | 37.26479 | 126.28755 | 13406 ft | 357 kts | 154° |
| 2026-05-01 10:55 | 37.24242 | 126.30153 | 14040 ft | 362 kts | 154° |
| 2026-05-01 10:55 | 37.21980 | 126.31565 | 14708 ft | 364 kts | 154° |
| 2026-05-01 10:55 | 37.19709 | 126.32982 | 15396 ft | 365 kts | 154° |
| 2026-05-01 10:56 | 37.17432 | 126.34402 | 16073 ft | 367 kts | 155° |
| 2026-05-01 10:56 | 37.15138 | 126.35830 | 16720 ft | 369 kts | 155° |
| 2026-05-01 10:56 | 37.12861 | 126.37247 | 17353 ft | 372 kts | 155° |
| 2026-05-01 10:56 | 37.10541 | 126.38689 | 18018 ft | 373 kts | 155° |
| 2026-05-01 10:57 | 37.08211 | 126.40138 | 18622 ft | 375 kts | 156° |
| 2026-05-01 10:57 | 37.05866 | 126.41594 | 19153 ft | 378 kts | 156° |
| 2026-05-01 10:57 | 37.03505 | 126.43059 | 19697 ft | 380 kts | 156° |
| 2026-05-01 10:57 | 37.01126 | 126.44535 | 20264 ft | 382 kts | 156° |
| 2026-05-01 10:58 | 36.98741 | 126.46013 | 20848 ft | 383 kts | 156° |
| 2026-05-01 10:58 | 36.96343 | 126.47499 | 21367 ft | 386 kts | 157° |
| 2026-05-01 10:58 | 36.93961 | 126.48972 | 21867 ft | 389 kts | 157° |
| 2026-05-01 10:58 | 36.91531 | 126.50476 | 22414 ft | 390 kts | 157° |
| 2026-05-01 10:59 | 36.89092 | 126.51983 | 22951 ft | 392 kts | 157° |
| 2026-05-01 10:59 | 36.86613 | 126.53513 | 23128 ft | 403 kts | 158° |
| 2026-05-01 10:59 | 36.84066 | 126.55083 | 23309 ft | 412 kts | 157° |
| 2026-05-01 10:59 | 36.81486 | 126.56676 | 23765 ft | 412 kts | 158° |
| 2026-05-01 11:00 | 36.78911 | 126.58266 | 23888 ft | 414 kts | 158° |
| 2026-05-01 11:00 | 36.76339 | 126.59852 | 23905 ft | 411 kts | 158° |
| 2026-05-01 11:00 | 36.73775 | 126.61382 | 23899 ft | 406 kts | 161° |
| 2026-05-01 11:00 | 36.71113 | 126.62498 | 23933 ft | 403 kts | 168° |
| 2026-05-01 11:01 | 36.68435 | 126.63377 | 23922 ft | 404 kts | 168° |
| 2026-05-01 11:01 | 36.65715 | 126.64260 | 23913 ft | 404 kts | 168° |
| 2026-05-01 11:01 | 36.62995 | 126.65151 | 23923 ft | 404 kts | 168° |
| 2026-05-01 11:01 | 36.60278 | 126.66049 | 23927 ft | 403 kts | 168° |
| 2026-05-01 11:02 | 36.57570 | 126.66952 | 23923 ft | 402 kts | 168° |
| 2026-05-01 11:02 | 36.54874 | 126.67854 | 23918 ft | 401 kts | 168° |
| 2026-05-01 11:02 | 36.52182 | 126.68756 | 23923 ft | 400 kts | 168° |
| 2026-05-01 11:02 | 36.49501 | 126.69655 | 23933 ft | 399 kts | 168° |
| 2026-05-01 11:03 | 36.46827 | 126.70550 | 23930 ft | 398 kts | 168° |
| 2026-05-01 11:03 | 36.44157 | 126.71443 | 23927 ft | 397 kts | 168° |
| 2026-05-01 11:03 | 36.41527 | 126.72322 | 23931 ft | 397 kts | 168° |
| 2026-05-01 11:03 | 36.38862 | 126.73211 | 23939 ft | 396 kts | 168° |
| 2026-05-01 11:04 | 36.36200 | 126.74104 | 23945 ft | 396 kts | 168° |
| 2026-05-01 11:04 | 36.33539 | 126.75000 | 23933 ft | 396 kts | 168° |
| 2026-05-01 11:04 | 36.30882 | 126.75896 | 23935 ft | 397 kts | 168° |
| 2026-05-01 11:04 | 36.28218 | 126.76792 | 23936 ft | 396 kts | 168° |
| 2026-05-01 11:05 | 36.25560 | 126.77687 | 23951 ft | 396 kts | 168° |
| 2026-05-01 11:05 | 36.22899 | 126.78582 | 23942 ft | 397 kts | 168° |
| 2026-05-01 11:05 | 36.20228 | 126.79479 | 23944 ft | 398 kts | 168° |
| 2026-05-01 11:05 | 36.17583 | 126.80350 | 23938 ft | 398 kts | 171° |
| 2026-05-01 11:06 | 36.14861 | 126.80878 | 23957 ft | 396 kts | 178° |
| 2026-05-01 11:06 | 36.12116 | 126.80948 | 23951 ft | 394 kts | 186° |
| 2026-05-01 11:06 | 36.09388 | 126.80639 | 23956 ft | 394 kts | 187° |
| 2026-05-01 11:07 | 36.03924 | 126.79994 | 23968 ft | 395 kts | 187° |
| 2026-05-01 11:07 | 36.01188 | 126.79686 | 23960 ft | 395 kts | 187° |
| 2026-05-01 11:07 | 35.98450 | 126.79384 | 23968 ft | 395 kts | 187° |
| 2026-05-01 11:07 | 35.95717 | 126.79087 | 23963 ft | 395 kts | 187° |
| 2026-05-01 11:08 | 35.92981 | 126.78791 | 23969 ft | 394 kts | 187° |
| 2026-05-01 11:08 | 35.90284 | 126.78499 | 23969 ft | 394 kts | 187° |
| 2026-05-01 11:08 | 35.84832 | 126.77910 | 23966 ft | 393 kts | 187° |
| 2026-05-01 11:09 | 35.82104 | 126.77616 | 23967 ft | 393 kts | 187° |
| 2026-05-01 11:09 | 35.79381 | 126.77323 | 23971 ft | 393 kts | 187° |
| 2026-05-01 11:09 | 35.76657 | 126.77029 | 23975 ft | 393 kts | 187° |